Time;durP1;ratioP1;P1;durP2;ratioP2;P2;SDS_P1;SDS_P2;PMS_P1;PMS_P2;Temp;Humidity;BMP_temperature;BMP_pressure;BME280_temperature;BME280_humidity;BME280_pressure;Samples;Min_cycle;Max_cycle;Signal;HPM_P1;HPM_P2
2022/11/09 00:00:32;;;;;;;;;;;;;;;11.64;67.57;98755.63;5218495;28;19925;-73
2022/11/09 00:03:22;;;;;;;;;;;;;;;11.84;66.68;98754.44;5220757;28;19928;-72
2022/11/09 00:06:12;;;;;;;;;;;;;;;11.96;66.45;98749.69;5220701;28;19929;-74
2022/11/09 00:09:04;;;;;;;;;;;;;;;12.06;66.30;98738.94;5217500;28;19963;-73
2022/11/09 00:11:57;;;;;;;;;;;;;;;11.90;66.55;98751.16;5216267;28;19932;-73
2022/11/09 00:14:47;;;;;;;;;;;;;;;11.92;66.79;98753.63;5219599;28;19956;-72
2022/11/09 00:17:36;;;;;;;;;;;;;;;12.04;65.84;98749.72;5215205;28;20553;-73
2022/11/09 00:20:27;;;;;;;;;;;;;;;12.26;65.01;98747.50;5216277;28;19979;-73
2022/11/09 00:23:19;;;;;;;;;;;;;;;12.38;64.53;98746.19;5220553;28;19936;-73
2022/11/09 00:26:10;;;;;;;;;;;;;;;12.25;65.24;98737.84;5218017;28;20311;-73
2022/11/09 00:29:00;;;;;;;;;;;;;;;12.23;65.01;98730.88;5217510;28;19983;-73
2022/11/09 00:31:50;;;;;;;;;;;;;;;12.09;65.86;98730.66;5215415;28;19924;-73
2022/11/09 00:34:39;;;;;;;;;;;;;;;12.13;65.01;98727.50;5219251;28;20298;-73
2022/11/09 00:37:29;;;;;;;;;;;;;;;12.17;65.25;98730.69;5217825;28;19970;-72
2022/11/09 00:40:19;;;;;;;;;;;;;;;12.22;65.19;98734.53;5221805;28;19928;-72
2022/11/09 00:43:10;;;;;;;;;;;;;;;12.15;65.20;98732.66;5219562;28;20536;-73
2022/11/09 00:46:00;;;;;;;;;;;;;;;12.11;65.68;98729.47;5218804;28;19944;-73
2022/11/09 00:48:50;;;;;;;;;;;;;;;12.22;65.08;98734.53;5219322;28;20459;-73
2022/11/09 00:51:39;;;;;;;;;;;;;;;12.10;66.10;98730.50;5223380;28;19936;-72
2022/11/09 00:54:29;;;;;;;;;;;;;;;12.23;64.63;98727.38;5223679;28;19936;-73
2022/11/09 00:57:19;;;;;;;;;;;;;;;12.41;64.27;98733.41;5221652;28;19932;-73
2022/11/09 01:00:10;;;;;;;;;;;;;;;12.21;65.14;98724.03;5221708;28;20327;-73
2022/11/09 01:03:00;;;;;;;;;;;;;;;12.12;65.09;98723.19;5223381;28;19933;-73
2022/11/09 01:05:50;;;;;;;;;;;;;;;12.17;65.60;98725.38;5220234;28;19974;-73
2022/11/09 01:08:40;;;;;;;;;;;;;;;12.11;65.37;98726.81;5222105;28;20577;-73
2022/11/09 01:11:30;;;;;;;;;;;;;;;12.03;65.87;98726.81;5220033;28;19974;-73
2022/11/09 01:14:20;;;;;;;;;;;;;;;11.95;66.19;98732.06;5222841;28;19989;-73
2022/11/09 01:17:11;;;;;;;;;;;;;;;11.82;66.77;98727.19;5223513;28;20312;-73
2022/11/09 01:20:01;;;;;;;;;;;;;;;11.86;66.43;98727.72;5219891;28;20401;-73
2022/11/09 01:22:51;;;;;;;;;;;;;;;11.87;66.85;98734.69;5232279;28;19936;-73
2022/11/09 01:25:42;;;;;;;;;;;;;;;11.84;66.69;98719.03;5221537;28;19978;-73
2022/11/09 01:28:32;;;;;;;;;;;;;;;11.86;67.03;98741.84;5218788;28;19929;-73
2022/11/09 01:31:24;;;;;;;;;;;;;;;11.74;67.87;98735.94;5215905;28;19932;-73
2022/11/09 01:34:16;;;;;;;;;;;;;;;11.78;67.45;98731.13;5223230;28;20070;-73
2022/11/09 01:37:06;;;;;;;;;;;;;;;11.81;67.67;98735.31;5219819;28;19966;-73
2022/11/09 01:39:56;;;;;;;;;;;;;;;11.79;67.44;98748.75;5221102;28;20575;-73
2022/11/09 01:42:46;;;;;;;;;;;;;;;11.72;68.31;98747.69;5221225;28;20013;-73
2022/11/09 01:45:37;;;;;;;;;;;;;;;11.80;67.99;98746.91;5222337;28;19974;-73
2022/11/09 01:48:28;;;;;;;;;;;;;;;11.65;68.31;98749.31;5219226;28;19936;-73
2022/11/09 01:51:18;;;;;;;;;;;;;;;11.60;69.02;98739.16;5221414;28;19935;-73
2022/11/09 01:54:16;;;;;;;;;;;;;;;11.68;67.98;98751.66;5222487;28;19951;-72
2022/11/09 01:57:09;;;;;;;;;;;;;;;11.69;67.92;98758.66;5218071;28;19936;-73
2022/11/09 02:00:02;;;;;;;;;;;;;;;11.73;67.68;98760.00;5223587;28;20450;-72
2022/11/09 02:03:06;;;;;;;;;;;;;;;11.60;67.93;98760.41;5224071;28;20308;-73
2022/11/09 02:05:58;;;;;;;;;;;;;;;11.58;68.34;98750.94;5221912;28;19935;-73
2022/11/09 02:08:53;;;;;;;;;;;;;;;11.56;67.67;98763.53;5216499;28;19951;-73
2022/11/09 02:11:43;;;;;;;;;;;;;;;11.56;67.71;98759.06;5219997;28;19929;-73
2022/11/09 02:14:34;;;;;;;;;;;;;;;11.64;67.99;98767.06;5220119;28;19950;-73
2022/11/09 02:17:24;;;;;;;;;;;;;;;11.67;67.67;98765.94;5220809;28;19951;-73
2022/11/09 02:20:16;;;;;;;;;;;;;;;11.69;67.94;98763.97;5220600;28;19936;-73
2022/11/09 02:23:06;;;;;;;;;;;;;;;11.63;67.95;98757.44;5219852;28;19951;-73
2022/11/09 02:25:58;;;;;;;;;;;;;;;11.62;68.15;98758.44;5217505;28;20348;-73
2022/11/09 02:28:48;;;;;;;;;;;;;;;11.69;68.17;98770.09;5220644;28;20015;-73
2022/11/09 02:31:42;;;;;;;;;;;;;;;11.70;68.24;98769.09;5218230;28;19943;-73
2022/11/09 02:34:33;;;;;;;;;;;;;;;11.81;68.22;98777.81;5219875;28;19936;-73
2022/11/09 02:37:33;;;;;;;;;;;;;;;11.84;68.50;98767.72;5217677;28;19936;-73
2022/11/09 02:40:27;;;;;;;;;;;;;;;11.80;67.87;98766.34;5222062;28;20012;-73
2022/11/09 02:43:18;;;;;;;;;;;;;;;11.88;68.15;98757.63;5218351;28;19928;-73
2022/11/09 02:46:08;;;;;;;;;;;;;;;11.92;68.26;98770.44;5221078;28;19998;-73
2022/11/09 02:48:59;;;;;;;;;;;;;;;11.94;67.93;98762.28;5216917;28;20021;-73
2022/11/09 02:51:49;;;;;;;;;;;;;;;11.97;68.51;98769.94;5221312;28;19924;-73
2022/11/09 02:54:38;;;;;;;;;;;;;;;12.09;68.52;98774.00;5220213;28;19935;-72
2022/11/09 02:57:28;;;;;;;;;;;;;;;12.10;68.14;98778.31;5217863;28;20430;-73
2022/11/09 03:00:19;;;;;;;;;;;;;;;12.13;68.16;98785.97;5216425;28;20078;-73
2022/11/09 03:03:09;;;;;;;;;;;;;;;12.09;68.16;98797.09;5218470;28;19935;-73
2022/11/09 03:05:59;;;;;;;;;;;;;;;12.11;68.75;98798.59;5219208;28;19959;-73
2022/11/09 03:08:49;;;;;;;;;;;;;;;12.17;68.67;98795.31;5215439;28;20409;-73
2022/11/09 03:11:40;;;;;;;;;;;;;;;12.09;68.96;98797.94;5218805;28;20306;-73
2022/11/09 03:14:32;;;;;;;;;;;;;;;12.14;69.32;98800.09;5218850;28;19929;-74
2022/11/09 03:17:23;;;;;;;;;;;;;;;12.15;69.57;98799.97;5217539;28;20619;-74
2022/11/09 03:20:14;;;;;;;;;;;;;;;12.08;69.83;98801.56;5219770;28;20037;-73
2022/11/09 03:23:05;;;;;;;;;;;;;;;12.16;69.51;98804.28;5218301;28;19932;-74
2022/11/09 03:25:56;;;;;;;;;;;;;;;12.18;69.83;98806.75;5216488;28;19925;-73
2022/11/09 03:28:47;;;;;;;;;;;;;;;12.19;69.84;98806.63;5220162;28;19925;-73
2022/11/09 03:31:38;;;;;;;;;;;;;;;12.20;70.28;98800.31;5218288;28;20743;-73
2022/11/09 03:34:33;;;;;;;;;;;;;;;12.26;70.41;98798.00;5220458;28;19990;-74
2022/11/09 03:37:23;;;;;;;;;;;;;;;12.24;70.50;98803.47;5220674;28;19952;-74
2022/11/09 03:40:13;;;;;;;;;;;;;;;12.29;70.68;98808.34;5257369;22;19978;-74
2022/11/09 03:43:04;;;;;;;;;;;;;;;12.27;70.57;98810.31;5260642;28;20424;-74
2022/11/09 03:45:56;;;;;;;;;;;;;;;12.32;71.12;98811.50;5255751;28;20416;-75
2022/11/09 03:48:45;;;;;;;;;;;;;;;12.34;71.16;98804.19;5245093;28;20032;-74
2022/11/09 03:51:35;;;;;;;;;;;;;;;12.28;71.08;98798.66;5263878;28;19931;-75
2022/11/09 03:54:25;;;;;;;;;;;;;;;12.29;71.49;98813.66;5261246;28;19924;-74
2022/11/09 03:57:15;;;;;;;;;;;;;;;12.28;72.05;98804.81;5261040;28;19928;-74
2022/11/09 04:00:06;;;;;;;;;;;;;;;12.42;71.25;98806.06;5258335;28;20129;-74
2022/11/09 04:03:00;;;;;;;;;;;;;;;12.40;71.34;98810.69;5261970;28;20324;-75
2022/11/09 04:05:50;;;;;;;;;;;;;;;12.26;71.82;98811.31;5258525;28;20397;-74
2022/11/09 04:08:40;;;;;;;;;;;;;;;12.33;71.82;98801.69;5261918;28;20021;-74
2022/11/09 04:11:31;;;;;;;;;;;;;;;12.34;70.91;98801.53;5258485;28;19950;-74
2022/11/09 04:14:21;;;;;;;;;;;;;;;12.28;71.61;98799.50;5262461;28;19928;-74
2022/11/09 04:17:11;;;;;;;;;;;;;;;12.22;71.43;98800.16;5262313;28;19935;-74
2022/11/09 04:20:01;;;;;;;;;;;;;;;12.22;71.27;98798.31;5258688;28;19949;-74
2022/11/09 04:22:56;;;;;;;;;;;;;;;12.21;71.49;98804.63;5262165;28;19935;-73
2022/11/09 04:25:46;;;;;;;;;;;;;;;12.25;71.28;98818.44;5265194;28;19935;-74
2022/11/09 04:28:40;;;;;;;;;;;;;;;12.31;71.83;98809.81;5265098;28;19927;-74
2022/11/09 04:31:30;;;;;;;;;;;;;;;12.46;70.86;98826.84;5260219;28;19939;-73
2022/11/09 04:34:20;;;;;;;;;;;;;;;12.57;70.44;98820.41;5266684;28;19935;-74
2022/11/09 04:37:11;;;;;;;;;;;;;;;12.69;69.66;98826.28;5265135;28;19931;-74
2022/11/09 04:40:01;;;;;;;;;;;;;;;12.31;72.06;98827.59;5262239;28;20045;-74
2022/11/09 04:42:51;;;;;;;;;;;;;;;12.23;72.07;98817.75;5259254;28;19956;-74
2022/11/09 04:45:43;;;;;;;;;;;;;;;12.28;72.46;98828.75;5264080;28;19935;-74
2022/11/09 04:48:33;;;;;;;;;;;;;;;12.35;72.38;98813.84;5263495;28;20416;-73
2022/11/09 04:51:22;;;;;;;;;;;;;;;12.33;71.72;98822.97;5264986;28;19928;-74
2022/11/09 04:54:12;;;;;;;;;;;;;;;12.51;71.05;98828.19;5265694;28;19928;-73
2022/11/09 04:57:02;;;;;;;;;;;;;;;12.40;71.63;98832.78;5265754;28;19954;-74
2022/11/09 04:59:52;;;;;;;;;;;;;;;12.36;72.02;98834.13;5264250;28;19981;-73
2022/11/09 05:02:42;;;;;;;;;;;;;;;12.37;72.21;98808.34;5265079;28;19932;-74
2022/11/09 05:05:36;;;;;;;;;;;;;;;12.18;73.03;98810.25;5263521;28;19950;-74
2022/11/09 05:08:25;;;;;;;;;;;;;;;11.90;74.18;98809.59;5261427;28;19935;-74
2022/11/09 05:11:15;;;;;;;;;;;;;;;11.84;74.72;98804.06;5263991;28;20444;-74
2022/11/09 05:14:05;;;;;;;;;;;;;;;11.98;74.38;98806.16;5263326;28;19928;-74
2022/11/09 05:16:55;;;;;;;;;;;;;;;11.99;74.47;98814.00;5261008;28;20289;-74
2022/11/09 05:19:45;;;;;;;;;;;;;;;12.00;74.39;98809.50;5263993;28;20153;-74
2022/11/09 05:25:47;;;;;;;;;;;;;;;11.41;77.10;98803.91;5256711;28;19928;-74
2022/11/09 05:28:37;;;;;;;;;;;;;;;11.21;77.47;98795.28;5253937;28;19964;-74
2022/11/09 05:31:27;;;;;;;;;;;;;;;11.25;78.34;98801.13;5271356;28;19928;-74
2022/11/09 05:34:17;;;;;;;;;;;;;;;11.18;77.55;98792.09;5263532;28;19928;-74
2022/11/09 05:37:07;;;;;;;;;;;;;;;11.31;78.03;98799.69;5263512;28;19931;-74
2022/11/09 05:39:57;;;;;;;;;;;;;;;11.15;78.35;98787.94;5261410;28;20406;-74
2022/11/09 05:42:47;;;;;;;;;;;;;;;11.24;78.67;98781.72;5258647;28;19947;-74
2022/11/09 05:45:37;;;;;;;;;;;;;;;11.06;79.13;98794.16;5263975;28;19942;-74
2022/11/09 05:48:32;;;;;;;;;;;;;;;11.31;78.79;98795.19;5263114;28;20040;-75
2022/11/09 05:51:22;;;;;;;;;;;;;;;11.31;78.04;98802.34;5249390;28;20396;-74
2022/11/09 05:54:12;;;;;;;;;;;;;;;11.50;78.37;98802.16;5264095;28;19935;-74
2022/11/09 05:57:02;;;;;;;;;;;;;;;11.54;77.95;98798.19;5262696;28;19931;-75
2022/11/09 05:59:51;;;;;;;;;;;;;;;11.68;76.88;98800.28;5265300;28;19928;-78
2022/11/09 06:02:41;;;;;;;;;;;;;;;11.57;77.63;98797.06;5265061;28;19928;-75
2022/11/09 06:05:32;;;;;;;;;;;;;;;11.87;76.91;98803.78;5264428;28;20495;-74
2022/11/09 06:08:22;;;;;;;;;;;;;;;11.94;76.39;98810.13;5262980;28;20009;-75
2022/11/09 06:11:12;;;;;;;;;;;;;;;11.92;76.11;98802.31;5252180;28;19935;-74
2022/11/09 06:14:07;;;;;;;;;;;;;;;12.19;75.20;98806.63;5252351;28;19975;-75
2022/11/09 06:16:57;;;;;;;;;;;;;;;12.22;75.61;98800.97;5253986;28;19989;-75
2022/11/09 06:19:47;;;;;;;;;;;;;;;12.14;75.46;98806.25;5246995;28;19950;-77
2022/11/09 06:22:36;;;;;;;;;;;;;;;12.22;75.83;98816.94;5255664;28;20017;-77
2022/11/09 06:25:27;;;;;;;;;;;;;;;12.37;75.72;98819.00;5258495;28;19943;-75
2022/11/09 06:28:17;;;;;;;;;;;;;;;12.57;74.15;98830.19;5260517;28;19928;-74
2022/11/09 06:31:07;;;;;;;;;;;;;;;12.69;74.20;98842.22;5257236;28;19932;-75
2022/11/09 06:33:57;;;;;;;;;;;;;;;12.80;73.68;98846.41;5257332;28;20464;-76
2022/11/09 06:36:47;;;;;;;;;;;;;;;12.90;73.35;98839.13;5264513;28;19927;-74
2022/11/09 06:39:37;;;;;;;;;;;;;;;12.78;73.38;98837.75;5246485;28;19943;-74
2022/11/09 06:42:27;;;;;;;;;;;;;;;12.76;74.21;98831.78;5249851;28;19936;-73
2022/11/09 06:45:16;;;;;;;;;;;;;;;12.81;73.70;98848.91;5255671;28;19946;-74
2022/11/09 06:48:09;;;;;;;;;;;;;;;12.84;73.88;98847.75;5262114;28;19925;-75
2022/11/09 06:51:02;;;;;;;;;;;;;;;12.96;72.99;98853.63;5260758;28;20388;-74
2022/11/09 06:53:52;;;;;;;;;;;;;;;12.87;72.86;98850.91;5259395;28;19931;-74
2022/11/09 06:56:42;;;;;;;;;;;;;;;12.87;73.13;98864.22;5262339;28;20476;-74
2022/11/09 06:59:33;;;;;;;;;;;;;;;12.87;73.28;98866.88;5240228;28;19932;-75
2022/11/09 07:02:23;;;;;;;;;;;;;;;12.90;72.60;98873.72;5240804;28;20010;-75
2022/11/09 07:05:13;;;;;;;;;;;;;;;12.90;73.58;98897.66;5247306;28;19939;-75
2022/11/09 07:08:03;;;;;;;;;;;;;;;12.74;74.01;98929.53;5248036;28;19978;-74
2022/11/09 07:10:53;;;;;;;;;;;;;;;11.99;76.61;98967.28;5251171;28;19954;-73
2022/11/09 07:13:43;;;;;;;;;;;;;;;11.85;77.88;98952.69;5251454;28;19963;-76
2022/11/09 07:16:32;;;;;;;;;;;;;;;12.39;75.73;98957.94;5235358;28;20025;-76
2022/11/09 07:19:22;;;;;;;;;;;;;;;12.67;74.73;98954.09;5248610;28;20148;-74
2022/11/09 07:22:12;;;;;;;;;;;;;;;12.85;74.35;98940.75;5250054;28;20408;-74
2022/11/09 07:25:02;;;;;;;;;;;;;;;12.88;73.98;98926.25;5253847;28;19931;-75
2022/11/09 07:27:52;;;;;;;;;;;;;;;12.86;73.92;98922.94;5246716;28;19932;-73
2022/11/09 07:30:42;;;;;;;;;;;;;;;12.74;74.75;98908.25;5228206;28;19936;-73
2022/11/09 07:33:32;;;;;;;;;;;;;;;12.88;74.24;98895.19;5238126;28;19939;-75
2022/11/09 07:36:22;;;;;;;;;;;;;;;12.95;74.44;98911.34;5238222;28;19939;-73
2022/11/09 07:39:12;;;;;;;;;;;;;;;12.91;74.63;98912.63;5241417;28;21918;-73
2022/11/09 07:42:02;;;;;;;;;;;;;;;13.07;74.13;98915.34;5243964;28;20617;-73
2022/11/09 07:44:52;;;;;;;;;;;;;;;13.14;73.47;98908.41;5245974;28;19977;-75
2022/11/09 07:47:42;;;;;;;;;;;;;;;12.96;74.20;98902.34;5245846;28;19967;-73
2022/11/09 07:50:32;;;;;;;;;;;;;;;13.19;73.72;98897.25;5248580;28;20007;-75
2022/11/09 07:53:23;;;;;;;;;;;;;;;13.15;73.96;98907.41;5246464;28;20342;-75
2022/11/09 07:56:13;;;;;;;;;;;;;;;13.19;73.32;98907.91;5246307;28;19997;-75
2022/11/09 07:59:03;;;;;;;;;;;;;;;13.38;73.16;98917.47;5241203;28;20388;-75
2022/11/09 08:01:53;;;;;;;;;;;;;;;13.19;72.77;98915.06;5242222;28;19935;-75
2022/11/09 08:04:43;;;;;;;;;;;;;;;13.17;72.99;98917.88;5244751;28;20836;-74
2022/11/09 08:07:33;;;;;;;;;;;;;;;12.88;74.42;98923.59;5247926;28;20416;-75
2022/11/09 08:10:24;;;;;;;;;;;;;;;13.03;74.27;98914.00;5252804;28;20305;-75
2022/11/09 08:13:14;;;;;;;;;;;;;;;13.11;74.27;98916.72;5254990;28;19943;-75
2022/11/09 08:16:04;;;;;;;;;;;;;;;13.11;73.91;98915.84;5253463;28;20077;-75
2022/11/09 08:18:54;;;;;;;;;;;;;;;12.80;74.71;98915.59;5253049;28;19984;-75
2022/11/09 08:21:44;;;;;;;;;;;;;;;13.00;74.67;98909.00;5249774;28;19924;-75
2022/11/09 08:24:34;;;;;;;;;;;;;;;12.82;75.30;98909.13;5249731;28;19931;-75
2022/11/09 08:27:24;;;;;;;;;;;;;;;12.42;77.63;98907.09;5248002;28;19935;-75
2022/11/09 08:30:15;;;;;;;;;;;;;;;12.36;78.02;98902.41;5234616;28;19939;-75
2022/11/09 08:33:05;;;;;;;;;;;;;;;11.93;79.38;98882.88;5241603;28;19939;-75
2022/11/09 08:35:55;;;;;;;;;;;;;;;11.79;80.17;98901.97;5241620;28;20037;-75
2022/11/09 08:38:45;;;;;;;;;;;;;;;12.32;78.28;98909.03;5244243;28;19963;-75
2022/11/09 08:41:35;;;;;;;;;;;;;;;12.50;77.38;98912.44;5244932;28;19932;-75
2022/11/09 08:44:25;;;;;;;;;;;;;;;12.18;78.70;98907.75;5245847;28;19948;-75
2022/11/09 08:47:15;;;;;;;;;;;;;;;12.37;78.47;98907.56;5252916;28;19932;-75
2022/11/09 08:50:06;;;;;;;;;;;;;;;12.20;79.34;98911.13;5254289;28;20322;-75
2022/11/09 08:52:56;;;;;;;;;;;;;;;12.32;78.59;98909.03;5250245;28;20135;-75
2022/11/09 08:55:46;;;;;;;;;;;;;;;12.18;80.70;98905.94;5248361;28;19935;-75
2022/11/09 08:58:38;;;;;;;;;;;;;;;12.26;79.63;98910.50;5246686;28;20502;-75
2022/11/09 09:01:28;;;;;;;;;;;;;;;12.38;79.44;98911.03;5247722;28;19939;-76
2022/11/09 09:04:18;;;;;;;;;;;;;;;12.54;79.07;98903.16;5249691;28;20018;-76
2022/11/09 09:07:08;;;;;;;;;;;;;;;12.72;78.78;98904.94;5252721;28;20002;-76
2022/11/09 09:09:58;;;;;;;;;;;;;;;12.35;79.26;98858.19;5251769;28;19994;-76
2022/11/09 09:12:48;;;;;;;;;;;;;;;12.88;78.00;98912.94;5251400;28;19932;-76
2022/11/09 09:15:38;;;;;;;;;;;;;;;13.13;76.70;98913.88;5254615;28;19928;-75
2022/11/09 09:18:28;;;;;;;;;;;;;;;13.02;77.52;98900.88;5248851;28;19967;-76
2022/11/09 09:21:18;;;;;;;;;;;;;;;13.17;77.65;98913.38;5242780;28;19931;-76
2022/11/09 09:24:08;;;;;;;;;;;;;;;13.07;77.29;98904.69;5241055;28;20050;-76
2022/11/09 09:26:57;;;;;;;;;;;;;;;13.08;77.27;98918.88;5243001;28;19966;-75
2022/11/09 09:29:47;;;;;;;;;;;;;;;13.31;77.58;98921.75;5239067;28;19939;-76
2022/11/09 09:32:37;;;;;;;;;;;;;;;13.50;76.50;98921.47;5249287;28;19932;-76
2022/11/09 09:35:27;;;;;;;;;;;;;;;13.82;75.43;98925.19;5248876;28;19932;-76
2022/11/09 09:38:17;;;;;;;;;;;;;;;13.97;75.18;98928.84;5252283;28;19944;-76
2022/11/09 09:41:13;;;;;;;;;;;;;;;14.09;74.43;98932.81;5260759;22;19935;-71
2022/11/09 09:44:27;;;;;;;;;;;;;;;14.27;73.79;98939.81;5246009;28;20369;-72
2022/11/09 09:47:33;;;;;;;;;;;;;;;14.47;74.07;98946.47;5227849;28;20080;-71
2022/11/09 09:50:25;;;;;;;;;;;;;;;14.58;74.00;98947.97;5245967;28;19970;-71
2022/11/09 09:53:22;;;;;;;;;;;;;;;14.66;73.44;98945.25;5245422;28;20020;-71
2022/11/09 09:56:20;;;;;;;;;;;;;;;14.67;72.42;98943.41;5242053;28;19939;-71
2022/11/09 09:59:33;;;;;;;;;;;;;;;14.81;73.09;98953.41;5238810;28;20438;-71
2022/11/09 10:02:25;;;;;;;;;;;;;;;14.96;72.25;98937.50;5236039;28;19931;-72
2022/11/09 10:05:16;;;;;;;;;;;;;;;15.16;72.89;98948.59;5239027;28;19939;-71
2022/11/09 10:08:06;;;;;;;;;;;;;;;15.31;72.47;98948.69;5240390;28;19939;-71
2022/11/09 10:11:07;;;;;;;;;;;;;;;15.41;72.74;98939.44;5247871;28;19940;-72
2022/11/09 10:13:56;;;;;;;;;;;;;;;15.59;70.70;98935.66;5249230;28;20428;-71
2022/11/09 10:16:46;;;;;;;;;;;;;;;15.68;71.10;98934.63;5245374;28;20012;-71
2022/11/09 10:19:59;;;;;;;;;;;;;;;15.79;71.37;98936.03;5245705;28;19939;-72
2022/11/09 10:22:58;;;;;;;;;;;;;;;15.89;69.61;98932.13;5245711;28;20399;-72
2022/11/09 10:25:53;;;;;;;;;;;;;;;15.81;71.05;98934.84;5246967;28;19939;-71
2022/11/09 10:29:14;;;;;;;;;;;;;;;15.85;71.59;98930.81;5246464;28;19994;-70
2022/11/09 10:32:13;;;;;;;;;;;;;;;15.86;71.69;98927.16;5245487;28;19943;-70
2022/11/09 10:35:06;;;;;;;;;;;;;;;15.92;70.71;98917.56;5252519;28;19924;-73
2022/11/09 10:37:56;;;;;;;;;;;;;;;16.16;69.59;98922.72;5246435;28;19935;-71
2022/11/09 10:40:55;;;;;;;;;;;;;;;15.98;70.82;98917.66;5238399;28;19950;-72
2022/11/09 10:44:04;;;;;;;;;;;;;;;16.24;69.06;98908.41;5242298;28;19931;-72
2022/11/09 10:47:15;;;;;;;;;;;;;;;16.21;69.60;98904.25;5238137;28;20031;-71
2022/11/09 10:50:38;;;;;;;;;;;;;;;15.98;70.38;98900.78;5237933;28;19976;-71
2022/11/09 10:53:49;;;;;;;;;;;;;;;16.00;69.03;98905.97;5242364;28;19935;-72
2022/11/09 10:57:16;;;;;;;;;;;;;;;15.94;70.46;98899.50;5242301;28;19943;-72
2022/11/09 11:00:37;;;;;;;;;;;;;;;15.90;70.97;98895.53;5245130;28;19950;-72
2022/11/09 11:03:49;;;;;;;;;;;;;;;15.56;70.45;98839.78;5249038;28;19928;-71
2022/11/09 11:07:11;;;;;;;;;;;;;;;16.03;70.83;98894.91;5247986;28;19997;-70
2022/11/09 11:10:24;;;;;;;;;;;;;;;16.08;69.44;98887.16;5244790;28;19956;-70
2022/11/09 11:13:34;;;;;;;;;;;;;;;15.93;69.01;98887.16;5246998;28;19958;-72
2022/11/09 11:16:44;;;;;;;;;;;;;;;15.97;69.24;98883.91;5250105;28;19971;-73
2022/11/09 11:19:53;;;;;;;;;;;;;;;16.14;69.13;98887.28;5243627;28;20305;-73
2022/11/09 11:23:08;;;;;;;;;;;;;;;15.91;70.18;98876.63;5248927;28;19985;-74
2022/11/09 11:26:27;;;;;;;;;;;;;;;15.95;70.58;98872.56;5248511;28;19984;-73
2022/11/09 11:29:45;;;;;;;;;;;;;;;16.27;69.92;98875.94;5242089;28;19986;-74
2022/11/09 11:32:54;;;;;;;;;;;;;;;16.27;69.58;98875.13;5237632;28;19939;-72
2022/11/09 11:36:22;;;;;;;;;;;;;;;16.33;69.94;98875.22;5239231;28;19985;-70
2022/11/09 11:39:46;;;;;;;;;;;;;;;16.06;70.01;98870.47;5237755;28;19943;-72
2022/11/09 11:42:57;;;;;;;;;;;;;;;16.06;69.61;98875.81;5237114;28;20428;-73
2022/11/09 11:46:42;;;;;;;;;;;;;;;16.08;70.09;98868.44;5239164;28;19939;-69
2022/11/09 11:49:53;;;;;;;;;;;;;;;16.14;70.59;98863.19;5158305;28;19933;-71
2022/11/09 11:53:05;;;;;;;;;;;;;;;16.38;69.72;98871.97;5239976;28;20389;-73
2022/11/09 11:56:20;;;;;;;;;;;;;;;16.36;69.29;98864.16;5238469;28;19940;-72
2022/11/09 11:59:42;;;;;;;;;;;;;;;16.20;69.17;98865.16;5237230;28;19939;-70
2022/11/09 12:03:04;;;;;;;;;;;;;;;16.39;69.84;98860.25;5237797;28;19928;-70
2022/11/09 12:06:29;;;;;;;;;;;;;;;16.60;68.54;98862.22;5239417;28;20027;-71
2022/11/09 12:09:47;;;;;;;;;;;;;;;16.68;68.13;98862.09;5241140;28;19981;-72
2022/11/09 12:13:06;;;;;;;;;;;;;;;16.72;67.97;98852.69;5246261;28;19981;-71
2022/11/09 12:16:35;;;;;;;;;;;;;;;16.78;67.98;98851.13;5254136;28;20366;-71
2022/11/09 12:20:13;;;;;;;;;;;;;;;16.64;68.93;98847.44;5240258;28;19931;-71
2022/11/09 12:23:30;;;;;;;;;;;;;;;16.48;68.55;98820.84;5245746;28;19959;-72
2022/11/09 12:26:47;;;;;;;;;;;;;;;16.66;67.83;98846.22;5259910;28;20339;-71
2022/11/09 12:30:15;;;;;;;;;;;;;;;16.63;68.56;98837.75;5240128;28;20009;-71
2022/11/09 12:33:33;;;;;;;;;;;;;;;16.49;69.07;98838.56;5257640;28;19939;-69
2022/11/09 12:36:50;;;;;;;;;;;;;;;16.41;69.40;98837.66;5261249;28;19928;-71
2022/11/09 12:40:05;;;;;;;;;;;;;;;16.54;68.79;98838.84;5251405;28;19953;-71
2022/11/09 12:43:34;;;;;;;;;;;;;;;16.58;68.68;98829.44;5252561;28;19928;-73
2022/11/09 12:46:47;;;;;;;;;;;;;;;16.54;68.66;98834.31;5244325;28;19951;-72
2022/11/09 12:49:56;;;;;;;;;;;;;;;16.66;68.67;98832.03;5244860;28;19957;-73
2022/11/09 12:53:06;;;;;;;;;;;;;;;16.59;68.67;98833.78;5251723;28;20019;-72
2022/11/09 12:56:21;;;;;;;;;;;;;;;16.33;69.57;98832.41;5254619;28;19993;-72
2022/11/09 12:59:45;;;;;;;;;;;;;;;16.57;69.04;98830.44;5243783;28;19958;-72
2022/11/09 13:02:56;;;;;;;;;;;;;;;16.64;69.05;98834.88;5249989;28;19974;-71
2022/11/09 13:06:09;;;;;;;;;;;;;;;16.51;69.93;98839.22;5253384;28;20061;-73
2022/11/09 13:09:22;;;;;;;;;;;;;;;16.66;69.61;98832.03;5244278;28;19985;-73
2022/11/09 13:12:33;;;;;;;;;;;;;;;16.59;69.65;98839.97;5254994;28;19951;-74
2022/11/09 13:16:00;;;;;;;;;;;;;;;16.70;69.89;98837.81;5251664;28;19932;-73
2022/11/09 13:19:09;;;;;;;;;;;;;;;16.87;69.31;98837.44;5241278;28;20373;-71
2022/11/09 13:22:24;;;;;;;;;;;;;;;16.72;70.01;98843.81;5228912;28;19934;-76
2022/11/09 13:25:49;;;;;;;;;;;;;;;16.74;70.12;98839.09;5239702;28;19935;-74
2022/11/09 13:29:08;;;;;;;;;;;;;;;16.73;70.71;98840.97;5239694;28;19980;-74
2022/11/09 13:32:20;;;;;;;;;;;;;;;16.87;70.98;98841.97;5238107;28;19973;-73
2022/11/09 13:35:41;;;;;;;;;;;;;;;16.76;70.08;98847.81;5240973;28;19976;-73
2022/11/09 13:39:08;;;;;;;;;;;;;;;16.75;70.72;98854.19;5240563;28;20035;-75
2022/11/09 13:42:31;;;;;;;;;;;;;;;16.74;70.42;98863.19;5239895;28;19932;-72
2022/11/09 13:45:51;;;;;;;;;;;;;;;16.63;71.10;98835.88;5247189;28;19928;-72
2022/11/09 13:49:00;;;;;;;;;;;;;;;16.79;71.39;98869.69;5248594;28;20488;-74
2022/11/09 13:52:28;;;;;;;;;;;;;;;16.83;71.25;98865.63;5246333;28;19973;-73
2022/11/09 13:55:38;;;;;;;;;;;;;;;16.85;71.37;98873.47;5244552;28;19943;-72
2022/11/09 13:58:51;;;;;;;;;;;;;;;16.84;71.98;98878.00;5254246;28;21052;-73
2022/11/09 14:02:00;;;;;;;;;;;;;;;16.86;71.70;98875.97;5244078;28;20070;-73
2022/11/09 14:05:26;;;;;;;;;;;;;;;16.86;71.79;98881.31;5252202;28;19947;-72
2022/11/09 14:08:35;;;;;;;;;;;;;;;16.86;71.41;98892.03;5247341;28;19932;-71
2022/11/09 14:11:56;;;;;;;;;;;;;;;16.87;70.94;98888.31;5244279;28;19943;-72
2022/11/09 14:15:23;;;;;;;;;;;;;;;16.58;71.52;98840.13;5249963;28;19990;-73
2022/11/09 14:18:47;;;;;;;;;;;;;;;16.82;71.36;98892.56;5246606;28;20027;-74
2022/11/09 14:21:57;;;;;;;;;;;;;;;16.80;70.94;98903.47;5242937;28;19931;-75
2022/11/09 14:25:16;;;;;;;;;;;;;;;16.70;72.03;98902.91;5242131;28;19932;-74
2022/11/09 14:28:26;;;;;;;;;;;;;;;16.80;71.51;98903.47;5237301;28;21344;-74
2022/11/09 14:31:40;;;;;;;;;;;;;;;16.77;71.65;98908.38;5238177;28;19939;-74
2022/11/09 14:35:09;;;;;;;;;;;;;;;16.74;71.72;98908.72;5238488;28;20305;-73
2022/11/09 14:38:23;;;;;;;;;;;;;;;16.71;71.62;98906.41;5239882;28;19951;-75
2022/11/09 14:41:33;;;;;;;;;;;;;;;16.68;71.92;98910.28;5239142;28;20212;-74
2022/11/09 14:44:43;;;;;;;;;;;;;;;16.74;71.69;98914.06;5237904;28;19953;-74
2022/11/09 14:47:54;;;;;;;;;;;;;;;16.65;71.81;98908.81;5237230;28;20625;-73
2022/11/09 14:51:05;;;;;;;;;;;;;;;16.65;71.67;98910.66;5235579;28;19976;-74
2022/11/09 14:54:17;;;;;;;;;;;;;;;16.63;71.59;98912.69;5239732;28;20026;-74
2022/11/09 14:57:26;;;;;;;;;;;;;;;16.57;71.92;98916.09;5239625;28;19974;-73
2022/11/09 15:00:35;;;;;;;;;;;;;;;16.53;71.67;98920.19;5238377;28;21393;-74
2022/11/09 15:04:03;;;;;;;;;;;;;;;16.44;71.86;98930.94;5237890;28;19982;-72
2022/11/09 15:07:16;;;;;;;;;;;;;;;16.31;72.19;98929.91;5242724;28;19932;-72
2022/11/09 15:10:28;;;;;;;;;;;;;;;16.30;71.95;98930.94;5241487;28;19939;-71
2022/11/09 15:13:38;;;;;;;;;;;;;;;16.34;72.40;98938.41;5241082;28;19962;-74
2022/11/09 15:16:47;;;;;;;;;;;;;;;16.30;72.44;98939.78;5242142;28;20102;-70
2022/11/09 15:19:58;;;;;;;;;;;;;;;16.33;72.48;98934.09;5238258;28;20659;-75
2022/11/09 15:23:22;;;;;;;;;;;;;;;15.98;71.18;98885.56;5241371;28;19932;-72
2022/11/09 15:26:34;;;;;;;;;;;;;;;16.22;72.89;98942.53;5239781;28;19939;-72
2022/11/09 15:29:43;;;;;;;;;;;;;;;16.23;72.27;98944.22;5238437;28;19931;-74
2022/11/09 15:32:51;;;;;;;;;;;;;;;16.09;73.25;98947.66;5238793;28;19928;-71